Time;durP1;ratioP1;P1;durP2;ratioP2;P2;SDS_P1;SDS_P2;PMS_P1;PMS_P2;Temp;Humidity;BMP_temperature;BMP_pressure;BME280_temperature;BME280_humidity;BME280_pressure;Samples;Min_cycle;Max_cycle;Signal;HPM_P1;HPM_P2
2024/03/16 00:01:41;;;;;;;2.22;1.58;;;;;;;;;;6245310;23;20040;-86
2024/03/16 00:04:10;;;;;;;4.50;1.98;;;;;;;;;;6253338;23;20099;-87
2024/03/16 00:06:37;;;;;;;3.72;2.00;;;;;;;;;;6255869;23;20036;-87
2024/03/16 00:09:04;;;;;;;2.38;1.70;;;;;;;;;;6253344;23;20050;-87
2024/03/16 00:11:32;;;;;;;2.63;1.80;;;;;;;;;;6259185;22;20360;-87
2024/03/16 00:14:00;;;;;;;3.58;2.00;;;;;;;;;;6253651;22;20348;-84
2024/03/16 00:16:30;;;;;;;3.60;1.77;;;;;;;;;;6254593;22;20015;-86
2024/03/16 00:18:58;;;;;;;1.83;1.50;;;;;;;;;;6256086;22;20402;-86
2024/03/16 00:21:26;;;;;;;3.13;1.83;;;;;;;;;;6256993;22;20045;-87
2024/03/16 00:23:53;;;;;;;3.58;1.40;;;;;;;;;;6256954;22;20440;-86
2024/03/16 00:26:21;;;;;;;4.18;1.60;;;;;;;;;;6283785;22;20023;-86
2024/03/16 00:28:50;;;;;;;3.40;1.83;;;;;;;;;;6254208;22;20024;-87
2024/03/16 00:31:18;;;;;;;4.53;1.30;;;;;;;;;;6255538;22;20352;-87
2024/03/16 00:33:45;;;;;;;1.40;1.30;;;;;;;;;;6255081;22;20142;-86
2024/03/16 00:36:12;;;;;;;3.50;2.10;;;;;;;;;;6282485;22;20024;-86
2024/03/16 00:38:41;;;;;;;3.15;1.70;;;;;;;;;;6255013;22;20080;-87
2024/03/16 00:41:09;;;;;;;7.22;2.17;;;;;;;;;;6282123;22;20024;-86
2024/03/16 00:43:36;;;;;;;2.70;1.73;;;;;;;;;;6281888;22;20351;-86
2024/03/16 00:46:04;;;;;;;5.57;1.83;;;;;;;;;;6282081;22;20047;-87
2024/03/16 00:48:31;;;;;;;2.70;2.03;;;;;;;;;;6254692;22;20050;-86
2024/03/16 00:50:58;;;;;;;5.32;2.40;;;;;;;;;;6253836;22;20062;-87
2024/03/16 00:53:25;;;;;;;5.07;2.90;;;;;;;;;;6280471;22;20360;-86
2024/03/16 00:55:53;;;;;;;2.05;1.77;;;;;;;;;;6250492;22;20026;-86
2024/03/16 00:58:20;;;;;;;3.97;1.95;;;;;;;;;;6251176;22;20016;-86
2024/03/16 01:00:48;;;;;;;2.95;1.70;;;;;;;;;;6251240;22;20495;-85
2024/03/16 01:03:15;;;;;;;4.38;1.83;;;;;;;;;;6250906;22;20038;-86
2024/03/16 01:05:42;;;;;;;1.73;1.63;;;;;;;;;;6277761;22;20023;-86
2024/03/16 01:08:10;;;;;;;3.85;1.60;;;;;;;;;;6250674;22;20027;-86
2024/03/16 01:10:37;;;;;;;2.60;1.40;;;;;;;;;;6250477;22;20406;-86
2024/03/16 01:13:04;;;;;;;2.63;1.35;;;;;;;;;;6245364;23;20049;-86
2024/03/16 01:15:32;;;;;;;1.88;1.40;;;;;;;;;;6246729;22;20021;-86
2024/03/16 01:18:00;;;;;;;3.53;1.98;;;;;;;;;;6246535;22;20016;-85
2024/03/16 01:20:27;;;;;;;3.25;1.75;;;;;;;;;;6245661;23;20044;-86
2024/03/16 01:22:55;;;;;;;3.17;1.85;;;;;;;;;;6245640;23;20068;-86
2024/03/16 01:25:22;;;;;;;2.53;1.60;;;;;;;;;;6245896;23;20027;-85
2024/03/16 01:27:50;;;;;;;2.35;1.63;;;;;;;;;;6246571;23;20028;-85
2024/03/16 01:30:17;;;;;;;3.30;1.40;;;;;;;;;;6246170;23;20395;-86
2024/03/16 01:32:44;;;;;;;6.45;1.30;;;;;;;;;;6246554;23;20483;-86
2024/03/16 01:35:12;;;;;;;1.77;1.55;;;;;;;;;;6248345;22;20070;-86
2024/03/16 01:37:39;;;;;;;3.90;1.27;;;;;;;;;;6245685;23;20091;-86
2024/03/16 01:40:07;;;;;;;3.47;1.40;;;;;;;;;;6245686;23;20020;-86
2024/03/16 01:42:34;;;;;;;2.65;1.40;;;;;;;;;;6245412;23;20016;-86
2024/03/16 01:45:18;;;;;;;3.30;1.40;;;;;;;;;;6245126;23;20035;-86
2024/03/16 01:47:45;;;;;;;;;;;;;;;;;;6246839;22;20016;-86
2024/03/16 01:50:12;;;;;;;5.10;1.45;;;;;;;;;;6245444;23;19938;-85
2024/03/16 01:52:39;;;;;;;2.67;1.70;;;;;;;;;;6245605;23;20078;-86
2024/03/16 01:55:06;;;;;;;1.60;1.50;;;;;;;;;;6245992;23;20163;-86
2024/03/16 01:57:34;;;;;;;4.47;2.03;;;;;;;;;;6246602;22;20066;-86
2024/03/16 02:00:02;;;;;;;3.67;1.80;;;;;;;;;;6246883;22;20020;-86
2024/03/16 02:02:32;;;;;;;1.77;1.67;;;;;;;;;;6246656;22;20042;-86
2024/03/16 02:05:00;;;;;;;2.17;1.95;;;;;;;;;;6246210;22;20027;-86
2024/03/16 02:07:27;;;;;;;4.38;2.10;;;;;;;;;;6245307;23;20130;-86
2024/03/16 02:09:54;;;;;;;4.25;1.90;;;;;;;;;;6245209;23;20028;-86
2024/03/16 02:12:22;;;;;;;3.97;2.08;;;;;;;;;;6244181;23;20487;-86
2024/03/16 02:14:49;;;;;;;3.03;2.22;;;;;;;;;;6245205;23;20032;-86
2024/03/16 02:17:16;;;;;;;3.30;2.13;;;;;;;;;;6244728;23;20016;-86
2024/03/16 02:19:47;;;;;;;2.47;1.60;;;;;;;;;;6245045;23;20020;-86
2024/03/16 02:22:14;;;;;;;1.63;1.52;;;;;;;;;;6246489;22;20023;-86
2024/03/16 02:24:44;;;;;;;4.63;1.90;;;;;;;;;;6245877;22;20078;-86
2024/03/16 02:27:12;;;;;;;4.80;1.73;;;;;;;;;;6244845;23;20464;-86
2024/03/16 02:29:39;;;;;;;3.33;1.80;;;;;;;;;;6244420;23;20016;-86
2024/03/16 02:32:07;;;;;;;3.05;1.85;;;;;;;;;;6246378;22;20020;-86
2024/03/16 02:34:38;;;;;;;2.20;1.70;;;;;;;;;;6244433;23;20020;-86
2024/03/16 02:37:06;;;;;;;3.92;1.67;;;;;;;;;;6244484;23;20016;-86
2024/03/16 02:39:33;;;;;;;1.92;1.40;;;;;;;;;;6244403;23;20016;-86
2024/03/16 02:42:02;;;;;;;2.58;2.17;;;;;;;;;;6244783;23;20507;-86
2024/03/16 02:44:31;;;;;;;2.60;1.20;;;;;;;;;;6244861;23;20086;-86
2024/03/16 02:47:01;;;;;;;2.78;1.55;;;;;;;;;;6244291;23;20016;-86
2024/03/16 02:49:28;;;;;;;1.50;1.40;;;;;;;;;;6244710;23;20016;-86
2024/03/16 02:51:55;;;;;;;2.15;1.35;;;;;;;;;;6244197;23;20024;-85
2024/03/16 02:54:23;;;;;;;3.15;1.40;;;;;;;;;;6244652;23;20086;-86
2024/03/16 02:56:51;;;;;;;2.35;1.50;;;;;;;;;;6244963;23;20468;-85
2024/03/16 02:59:19;;;;;;;2.50;1.50;;;;;;;;;;6245505;23;20016;-86
2024/03/16 03:01:46;;;;;;;3.20;1.23;;;;;;;;;;6268409;22;20056;-86
2024/03/16 03:04:17;;;;;;;1.48;1.25;;;;;;;;;;6270842;22;20031;-87
2024/03/16 03:06:45;;;;;;;3.67;1.05;;;;;;;;;;6264529;22;20082;-86
2024/03/16 03:09:13;;;;;;;3.25;1.27;;;;;;;;;;6249825;23;20048;-86
2024/03/16 03:11:41;;;;;;;1.50;1.17;;;;;;;;;;6250514;23;20024;-87
2024/03/16 03:14:08;;;;;;;2.45;1.38;;;;;;;;;;6248962;23;20051;-86
2024/03/16 03:16:35;;;;;;;1.67;1.40;;;;;;;;;;6246205;22;20020;-86
2024/03/16 03:19:02;;;;;;;1.55;1.30;;;;;;;;;;6244056;23;20043;-86
2024/03/16 03:21:31;;;;;;;1.55;1.02;;;;;;;;;;6244037;23;20012;-85
2024/03/16 03:23:59;;;;;;;2.88;1.30;;;;;;;;;;6245826;22;20058;-86
2024/03/16 03:26:29;;;;;;;1.10;1.10;;;;;;;;;;6243736;23;20087;-86
2024/03/16 03:28:57;;;;;;;3.88;1.60;;;;;;;;;;6244452;23;20028;-85
2024/03/16 03:31:25;;;;;;;1.20;1.00;;;;;;;;;;6245359;22;20016;-86
2024/03/16 03:33:52;;;;;;;2.10;0.93;;;;;;;;;;6243786;23;20095;-86
2024/03/16 03:36:19;;;;;;;3.10;1.30;;;;;;;;;;6244263;23;20396;-85
2024/03/16 03:38:49;;;;;;;2.95;1.30;;;;;;;;;;6243833;23;20471;-85
2024/03/16 03:41:18;;;;;;;2.42;1.30;;;;;;;;;;6244144;23;20465;-85
2024/03/16 03:43:57;;;;;;;3.38;1.20;;;;;;;;;;6244239;23;20040;-85
2024/03/16 03:46:49;;;;;;;2.17;1.27;;;;;;;;;;6244470;23;20016;-85
2024/03/16 03:49:35;;;;;;;3.90;1.50;;;;;;;;;;6247843;22;20028;-87
2024/03/16 03:52:03;;;;;;;1.92;1.10;;;;;;;;;;6252433;23;20024;-87
2024/03/16 03:54:34;;;;;;;2.95;1.25;;;;;;;;;;6254620;23;20104;-86
2024/03/16 03:57:02;;;;;;;1.88;1.08;;;;;;;;;;6255684;22;20027;-87
2024/03/16 03:59:30;;;;;;;2.95;1.02;;;;;;;;;;6252541;23;20020;-86
2024/03/16 04:01:57;;;;;;;1.77;0.90;;;;;;;;;;6247842;23;20024;-86
2024/03/16 04:04:24;;;;;;;3.95;1.20;;;;;;;;;;6249180;23;20016;-87
2024/03/16 04:06:51;;;;;;;5.60;1.27;;;;;;;;;;6252701;23;20074;-87
2024/03/16 04:09:19;;;;;;;4.05;1.15;;;;;;;;;;6253915;22;20020;-87
2024/03/16 04:11:46;;;;;;;2.33;1.17;;;;;;;;;;6263378;22;20031;-87
2024/03/16 04:14:13;;;;;;;3.95;1.20;;;;;;;;;;6256513;22;20020;-87
2024/03/16 04:16:41;;;;;;;1.48;1.10;;;;;;;;;;6256255;22;20019;-87
2024/03/16 04:19:08;;;;;;;2.90;1.20;;;;;;;;;;6256577;22;20019;-86
2024/03/16 04:21:35;;;;;;;2.80;1.23;;;;;;;;;;6255705;22;20015;-87
2024/03/16 04:24:03;;;;;;;1.58;1.30;;;;;;;;;;6282807;22;20020;-87
2024/03/16 04:26:30;;;;;;;2.53;1.38;;;;;;;;;;6255890;22;20020;-86
2024/03/16 04:28:57;;;;;;;2.13;1.90;;;;;;;;;;6255928;22;20089;-86
2024/03/16 04:31:24;;;;;;;2.90;1.52;;;;;;;;;;6281968;22;20023;-86
2024/03/16 04:33:52;;;;;;;1.73;1.20;;;;;;;;;;6250693;22;20103;-86
2024/03/16 04:36:19;;;;;;;4.68;1.35;;;;;;;;;;6277728;22;20074;-86
2024/03/16 04:38:46;;;;;;;1.50;1.40;;;;;;;;;;6277277;22;20016;-86
2024/03/16 04:41:14;;;;;;;2.90;1.25;;;;;;;;;;6251242;22;20027;-86
2024/03/16 04:43:41;;;;;;;1.48;1.38;;;;;;;;;;6277927;22;20027;-86
2024/03/16 04:46:08;;;;;;;1.40;1.30;;;;;;;;;;6250717;22;20015;-85
2024/03/16 04:48:35;;;;;;;3.15;1.85;;;;;;;;;;6251080;22;20024;-85
2024/03/16 04:51:03;;;;;;;2.03;1.50;;;;;;;;;;6251809;22;20094;-86
2024/03/16 04:53:30;;;;;;;2.13;1.42;;;;;;;;;;6251012;22;20030;-85
2024/03/16 04:55:58;;;;;;;2.00;1.70;;;;;;;;;;6250671;22;20082;-85
2024/03/16 04:58:26;;;;;;;1.40;1.30;;;;;;;;;;6250795;22;20020;-86
2024/03/16 05:00:53;;;;;;;7.68;4.43;;;;;;;;;;6250600;22;20526;-86
2024/03/16 05:03:20;;;;;;;6.80;4.15;;;;;;;;;;6250670;22;20020;-85
2024/03/16 05:05:50;;;;;;;7.82;4.25;;;;;;;;;;6250879;22;20019;-86
2024/03/16 05:08:18;;;;;;;5.82;4.40;;;;;;;;;;6250796;22;20027;-86
2024/03/16 05:10:54;;;;;;;5.70;4.57;;;;;;;;;;6251141;22;20390;-86
2024/03/16 05:13:21;;;;;;;5.43;4.35;;;;;;;;;;6215161;23;20025;-86
2024/03/16 05:15:48;;;;;;;9.45;4.65;;;;;;;;;;6240127;23;20071;-86
2024/03/16 05:18:16;;;;;;;4.45;4.05;;;;;;;;;;6216504;23;20051;-86
2024/03/16 05:20:44;;;;;;;4.95;4.25;;;;;;;;;;6216640;23;20021;-85
2024/03/16 05:23:11;;;;;;;5.65;3.13;;;;;;;;;;6239789;23;20095;-86
2024/03/16 05:25:39;;;;;;;6.07;4.38;;;;;;;;;;6239537;23;20396;-86
2024/03/16 05:28:06;;;;;;;5.88;3.25;;;;;;;;;;6239854;23;20030;-86
2024/03/16 05:30:33;;;;;;;4.05;3.50;;;;;;;;;;6240358;23;20020;-85
2024/03/16 05:33:01;;;;;;;6.00;3.08;;;;;;;;;;6240185;23;20024;-86
2024/03/16 05:35:28;;;;;;;3.85;3.10;;;;;;;;;;6240282;23;20027;-86
2024/03/16 05:37:56;;;;;;;4.50;2.65;;;;;;;;;;6239945;23;20020;-85
2024/03/16 05:40:24;;;;;;;4.75;2.42;;;;;;;;;;6240304;23;20016;-85
2024/03/16 05:42:51;;;;;;;3.70;2.13;;;;;;;;;;6216218;23;20023;-86
2024/03/16 05:45:19;;;;;;;3.47;2.75;;;;;;;;;;6239956;23;20020;-85
2024/03/16 05:47:46;;;;;;;2.17;2.03;;;;;;;;;;6240049;23;20021;-86
2024/03/16 05:50:13;;;;;;;4.38;3.40;;;;;;;;;;6216311;23;20020;-86
2024/03/16 05:52:40;;;;;;;6.55;2.88;;;;;;;;;;6239785;23;20357;-85
2024/03/16 05:55:08;;;;;;;4.97;2.72;;;;;;;;;;6240237;23;20071;-85
2024/03/16 05:57:35;;;;;;;4.30;2.67;;;;;;;;;;6239362;23;20013;-86
2024/03/16 06:00:13;;;;;;;3.22;2.45;;;;;;;;;;6239738;23;20100;-86
2024/03/16 06:02:40;;;;;;;3.17;2.30;;;;;;;;;;6240304;23;20021;-86
2024/03/16 06:05:08;;;;;;;3.92;1.90;;;;;;;;;;6240039;23;20021;-86
2024/03/16 06:07:35;;;;;;;3.47;1.90;;;;;;;;;;6239470;23;20070;-87
2024/03/16 06:10:02;;;;;;;5.63;2.42;;;;;;;;;;6239703;23;20035;-86
2024/03/16 06:12:30;;;;;;;3.00;2.50;;;;;;;;;;6255105;22;20019;-86
2024/03/16 06:14:58;;;;;;;2.58;1.70;;;;;;;;;;6249686;22;20019;-86
2024/03/16 06:17:25;;;;;;;4.50;2.17;;;;;;;;;;6250173;22;20379;-86
2024/03/16 06:19:54;;;;;;;2.85;1.58;;;;;;;;;;6276146;22;20016;-86
2024/03/16 06:22:21;;;;;;;5.82;1.98;;;;;;;;;;6249934;22;20026;-85
2024/03/16 06:24:49;;;;;;;3.00;1.63;;;;;;;;;;6250961;22;20028;-85
2024/03/16 06:27:21;;;;;;;2.97;1.48;;;;;;;;;;6250490;22;20551;-86
2024/03/16 06:29:52;;;;;;;2.95;1.23;;;;;;;;;;6249576;22;20057;-86
2024/03/16 06:32:20;;;;;;;2.75;1.60;;;;;;;;;;6249909;22;20074;-86
2024/03/16 06:34:51;;;;;;;3.55;1.63;;;;;;;;;;6249500;22;20407;-85
2024/03/16 06:37:18;;;;;;;2.10;1.05;;;;;;;;;;6250106;22;20059;-87
2024/03/16 06:39:46;;;;;;;5.30;1.48;;;;;;;;;;6277137;22;20016;-86
2024/03/16 06:42:13;;;;;;;2.97;1.35;;;;;;;;;;6250226;22;20041;-86
2024/03/16 06:44:40;;;;;;;4.43;1.30;;;;;;;;;;6250161;22;20370;-87
2024/03/16 06:47:08;;;;;;;3.22;1.63;;;;;;;;;;6250334;22;20211;-87
2024/03/16 06:49:35;;;;;;;4.63;1.67;;;;;;;;;;6250180;22;20455;-87
2024/03/16 06:52:02;;;;;;;3.80;1.60;;;;;;;;;;6250389;22;20015;-86
2024/03/16 06:54:30;;;;;;;7.95;1.75;;;;;;;;;;6278500;22;20050;-86
2024/03/16 06:56:58;;;;;;;2.78;1.77;;;;;;;;;;6250839;22;20506;-86
2024/03/16 06:59:26;;;;;;;3.30;1.75;;;;;;;;;;6250335;22;20012;-83
2024/03/16 07:01:54;;;;;;;5.32;2.17;;;;;;;;;;6250879;22;20019;-86
2024/03/16 07:04:22;;;;;;;3.17;1.75;;;;;;;;;;6250340;22;20020;-86
2024/03/16 07:06:49;;;;;;;2.88;1.70;;;;;;;;;;6250580;22;20016;-86
2024/03/16 07:09:18;;;;;;;1.38;1.27;;;;;;;;;;6249958;22;20047;-86
2024/03/16 07:11:46;;;;;;;6.03;1.60;;;;;;;;;;6250028;22;20020;-86
2024/03/16 07:14:15;;;;;;;3.80;1.83;;;;;;;;;;6225116;22;20023;-85
2024/03/16 07:16:42;;;;;;;2.67;1.55;;;;;;;;;;6253378;22;20364;-86
2024/03/16 07:19:09;;;;;;;1.25;1.00;;;;;;;;;;6250887;22;20396;-85
2024/03/16 07:21:37;;;;;;;1.15;1.05;;;;;;;;;;6253188;22;20012;-86
2024/03/16 07:24:04;;;;;;;0.90;0.90;;;;;;;;;;6250894;22;20074;-86
2024/03/16 07:26:32;;;;;;;3.17;0.95;;;;;;;;;;6251028;22;20015;-86
2024/03/16 07:28:59;;;;;;;1.30;0.90;;;;;;;;;;6254712;22;20399;-86
2024/03/16 07:31:27;;;;;;;1.40;0.85;;;;;;;;;;6280469;22;20077;-86
2024/03/16 07:33:54;;;;;;;1.38;1.23;;;;;;;;;;6276505;22;20016;-87
2024/03/16 07:36:25;;;;;;;3.72;1.20;;;;;;;;;;6251657;22;20077;-87
2024/03/16 07:38:58;;;;;;;2.25;0.80;;;;;;;;;;6253483;22;20016;-87
2024/03/16 07:41:25;;;;;;;0.80;0.52;;;;;;;;;;6257911;22;20024;-86
2024/03/16 07:43:54;;;;;;;1.23;0.80;;;;;;;;;;6255813;22;20019;-86
2024/03/16 07:46:22;;;;;;;1.40;0.63;;;;;;;;;;6255237;22;20019;-87
2024/03/16 07:48:50;;;;;;;1.80;1.10;;;;;;;;;;6254584;22;20028;-87
2024/03/16 07:51:17;;;;;;;3.70;1.00;;;;;;;;;;6252528;22;20016;-87
2024/03/16 07:53:44;;;;;;;2.35;1.20;;;;;;;;;;6278980;22;20555;-88
2024/03/16 07:56:18;;;;;;;2.70;1.48;;;;;;;;;;6254183;22;20020;-85
2024/03/16 07:58:45;;;;;;;1.55;0.80;;;;;;;;;;6253421;22;20051;-86
2024/03/16 08:01:12;;;;;;;1.63;0.82;;;;;;;;;;6255055;22;20081;-84
2024/03/16 08:03:41;;;;;;;3.78;1.02;;;;;;;;;;6255631;22;20019;-86
2024/03/16 08:06:24;;;;;;;8.10;1.23;;;;;;;;;;6252638;22;20018;-86
2024/03/16 08:08:51;;;;;;;3.30;0.90;;;;;;;;;;6254022;22;20090;-85
2024/03/16 08:11:20;;;;;;;1.10;0.80;;;;;;;;;;6252290;22;20024;-87
2024/03/16 08:13:47;;;;;;;3.38;0.90;;;;;;;;;;6280754;22;20015;-86
2024/03/16 08:16:15;;;;;;;1.55;0.65;;;;;;;;;;6279657;22;20027;-87
2024/03/16 08:18:42;;;;;;;1.10;0.90;;;;;;;;;;6253599;22;20016;-86
2024/03/16 08:21:13;;;;;;;3.03;0.98;;;;;;;;;;6253235;22;20103;-86
2024/03/16 08:23:40;;;;;;;1.83;0.60;;;;;;;;;;6255084;22;20015;-86
2024/03/16 08:26:09;;;;;;;2.35;0.60;;;;;;;;;;6255492;22;20379;-86
2024/03/16 08:28:36;;;;;;;1.77;0.70;;;;;;;;;;6252468;22;20020;-86
2024/03/16 08:31:05;;;;;;;1.23;0.80;;;;;;;;;;6253562;22;20020;-87
2024/03/16 08:33:51;;;;;;;1.02;0.50;;;;;;;;;;6253264;22;20070;-84
2024/03/16 08:36:18;;;;;;;1.33;0.88;;;;;;;;;;6256577;22;20027;-87
2024/03/16 08:39:08;;;;;;;2.22;0.50;;;;;;;;;;6254083;22;20073;-85
2024/03/16 08:41:36;;;;;;;2.33;0.77;;;;;;;;;;6253979;22;20034;-86
2024/03/16 08:44:04;;;;;;;3.80;0.80;;;;;;;;;;6252277;22;20027;-84
2024/03/16 08:46:38;;;;;;;1.40;0.47;;;;;;;;;;6251957;22;20468;-86
2024/03/16 08:49:07;;;;;;;;;;;;;;;;;;6252435;22;20395;-86
2024/03/16 08:51:34;;;;;;;2.60;0.77;;;;;;;;;;6252858;22;19937;-86
2024/03/16 08:54:02;;;;;;;2.70;0.90;;;;;;;;;;6255717;22;20471;-86
2024/03/16 08:56:30;;;;;;;2.72;0.60;;;;;;;;;;6253361;22;20023;-86
2024/03/16 08:59:00;;;;;;;1.23;0.70;;;;;;;;;;6254562;22;20096;-83
2024/03/16 09:01:42;;;;;;;1.33;0.90;;;;;;;;;;6255334;22;20091;-86
2024/03/16 09:04:12;;;;;;;0.40;0.30;;;;;;;;;;6255193;22;20016;-86
2024/03/16 09:06:40;;;;;;;3.00;0.70;;;;;;;;;;6252966;22;20102;-84
2024/03/16 09:09:11;;;;;;;0.73;0.47;;;;;;;;;;6253603;22;20099;-85
2024/03/16 09:11:39;;;;;;;1.35;0.70;;;;;;;;;;6282372;22;20023;-83
2024/03/16 09:14:06;;;;;;;2.67;0.70;;;;;;;;;;6280386;22;20024;-85
2024/03/16 09:16:40;;;;;;;2.00;0.70;;;;;;;;;;6252428;22;20026;-86
2024/03/16 09:19:08;;;;;;;9.40;3.92;;;;;;;;;;6252041;22;20459;-85
2024/03/16 09:21:36;;;;;;;0.95;0.35;;;;;;;;;;6252451;22;20543;-85
2024/03/16 09:24:03;;;;;;;4.15;2.90;;;;;;;;;;6252208;22;20027;-84
2024/03/16 09:26:30;;;;;;;2.88;0.90;;;;;;;;;;6256902;22;20019;-86
2024/03/16 09:28:58;;;;;;;1.48;0.50;;;;;;;;;;6256361;22;20023;-85
2024/03/16 09:31:25;;;;;;;1.98;0.60;;;;;;;;;;6258823;22;20553;-86
2024/03/16 09:33:52;;;;;;;8.40;4.75;;;;;;;;;;6252024;22;20015;-86
2024/03/16 09:36:20;;;;;;;1.65;0.50;;;;;;;;;;6282036;22;20071;-85
2024/03/16 09:38:47;;;;;;;1.75;0.70;;;;;;;;;;6259895;22;20023;-87
2024/03/16 09:41:18;;;;;;;1.95;0.38;;;;;;;;;;6251141;22;20470;-85
2024/03/16 09:43:54;;;;;;;8.55;3.97;;;;;;;;;;6277670;22;20023;-85
2024/03/16 09:46:23;;;;;;;1.13;0.43;;;;;;;;;;6225827;22;20136;-86
2024/03/16 09:48:50;;;;;;;0.77;0.40;;;;;;;;;;6225709;22;20030;-86
2024/03/16 09:51:16;;;;;;;0.63;0.63;;;;;;;;;;6226340;22;20065;-86
2024/03/16 09:53:43;;;;;;;1.45;1.25;;;;;;;;;;6226247;22;20491;-83
2024/03/16 09:56:11;;;;;;;0.50;0.50;;;;;;;;;;6225844;22;20022;-86
2024/03/16 09:58:40;;;;;;;0.60;0.50;;;;;;;;;;6225229;22;20453;-86
2024/03/16 10:01:07;;;;;;;0.85;0.20;;;;;;;;;;6226260;22;20015;-86
2024/03/16 10:03:49;;;;;;;0.40;0.32;;;;;;;;;;6226079;22;20020;-85
2024/03/16 10:06:16;;;;;;;0.50;0.20;;;;;;;;;;6250830;22;20015;-86
2024/03/16 10:08:44;;;;;;;0.63;0.17;;;;;;;;;;6251122;22;20024;-84
2024/03/16 10:11:12;;;;;;;1.38;0.30;;;;;;;;;;6227628;22;20026;-85
2024/03/16 10:13:42;;;;;;;0.70;0.70;;;;;;;;;;6190232;23;20024;-86
2024/03/16 10:21:33;;;;;;;0.90;0.32;;;;;;;;;;6178766;23;20396;-90
2024/03/16 10:23:59;;;;;;;1.02;0.40;;;;;;;;;;6159973;23;20075;-89
2024/03/16 10:26:32;;;;;;;0.63;0.28;;;;;;;;;;6160228;23;20027;-89
2024/03/16 10:37:05;;;;;;;0.60;0.47;;;;;;;;;;6199704;22;20107;-88
2024/03/16 10:39:35;;;;;;;0.10;0.10;;;;;;;;;;6249580;22;20027;-88
2024/03/16 10:42:02;;;;;;;1.08;0.28;;;;;;;;;;6252042;22;20020;-88
2024/03/16 10:44:29;;;;;;;0.68;0.30;;;;;;;;;;6251316;22;20015;-89
2024/03/16 10:46:55;;;;;;;1.45;0.40;;;;;;;;;;6251977;22;20027;-89
2024/03/16 10:49:22;;;;;;;0.30;0.30;;;;;;;;;;6277289;22;20016;-87
2024/03/16 10:51:49;;;;;;;0.60;0.60;;;;;;;;;;6250925;22;20023;-88
2024/03/16 10:54:15;;;;;;;0.70;0.38;;;;;;;;;;6277617;22;20023;-87
2024/03/16 10:56:42;;;;;;;5.78;0.60;;;;;;;;;;6250898;22;20395;-87
2024/03/16 10:59:08;;;;;;;1.58;0.55;;;;;;;;;;6251312;22;20020;-87
2024/03/16 11:01:39;;;;;;;1.60;0.50;;;;;;;;;;6250905;22;20038;-86
2024/03/16 11:04:13;;;;;;;1.58;0.52;;;;;;;;;;6259711;22;20589;-87
2024/03/16 11:06:41;;;;;;;1.17;0.38;;;;;;;;;;6276585;22;20367;-87
2024/03/16 11:09:22;;;;;;;0.57;0.32;;;;;;;;;;6250660;22;20031;-87
2024/03/16 11:11:50;;;;;;;1.40;0.47;;;;;;;;;;6251093;22;20016;-87
2024/03/16 11:14:16;;;;;;;0.60;0.40;;;;;;;;;;6250572;22;20019;-87
2024/03/16 11:16:52;;;;;;;0.28;0.20;;;;;;;;;;6250863;22;20022;-87
2024/03/16 11:19:21;;;;;;;1.00;0.57;;;;;;;;;;6250865;22;20474;-86
2024/03/16 11:21:48;;;;;;;1.15;0.20;;;;;;;;;;6251289;22;20019;-88
2024/03/16 11:24:17;;;;;;;1.85;0.50;;;;;;;;;;6276985;22;20016;-87
2024/03/16 11:26:43;;;;;;;2.17;1.00;;;;;;;;;;6250862;22;20026;-88
2024/03/16 11:29:18;;;;;;;0.40;0.38;;;;;;;;;;6250859;22;20039;-86
2024/03/16 11:31:54;;;;;;;0.30;0.30;;;;;;;;;;6250785;22;20026;-87
2024/03/16 11:34:22;;;;;;;0.93;0.40;;;;;;;;;;6251069;22;20380;-88
2024/03/16 11:36:50;;;;;;;1.08;0.30;;;;;;;;;;6251474;22;20375;-88
2024/03/16 11:39:17;;;;;;;3.03;0.40;;;;;;;;;;6250365;22;20030;-88
2024/03/16 11:41:45;;;;;;;0.52;0.52;;;;;;;;;;6276373;22;20020;-88
2024/03/16 11:44:14;;;;;;;0.68;0.55;;;;;;;;;;6250855;22;20015;-87
2024/03/16 11:46:45;;;;;;;2.20;1.23;;;;;;;;;;6251180;22;20026;-87
2024/03/16 11:49:15;;;;;;;2.58;0.90;;;;;;;;;;6250771;22;20045;-87
2024/03/16 11:51:41;;;;;;;3.33;0.52;;;;;;;;;;6276277;22;20329;-87
2024/03/16 11:54:08;;;;;;;0.88;0.32;;;;;;;;;;6250523;22;20448;-86
2024/03/16 11:56:35;;;;;;;0.65;0.30;;;;;;;;;;6250666;22;20347;-87
2024/03/16 11:59:04;;;;;;;0.30;0.30;;;;;;;;;;6250516;22;20049;-87
2024/03/16 12:01:31;;;;;;;0.52;0.30;;;;;;;;;;6276303;22;20038;-87
2024/03/16 12:03:58;;;;;;;0.57;0.30;;;;;;;;;;6250560;22;20058;-87
2024/03/16 12:06:25;;;;;;;1.70;0.50;;;;;;;;;;6250887;22;20020;-88
2024/03/16 12:08:51;;;;;;;0.30;0.20;;;;;;;;;;6250907;22;20344;-87
2024/03/16 12:11:19;;;;;;;0.93;0.40;;;;;;;;;;6250313;22;20023;-87
2024/03/16 12:13:46;;;;;;;1.17;0.50;;;;;;;;;;6251191;22;20020;-88
2024/03/16 12:16:12;;;;;;;0.38;0.20;;;;;;;;;;6253500;22;20020;-88
2024/03/16 12:18:43;;;;;;;0.80;0.30;;;;;;;;;;6263430;22;20038;-88
2024/03/16 12:21:12;;;;;;;1.95;0.63;;;;;;;;;;6278100;22;20031;-88
2024/03/16 12:23:38;;;;;;;1.17;0.20;;;;;;;;;;6252642;22;20020;-87
2024/03/16 12:26:09;;;;;;;0.10;0.10;;;;;;;;;;6252276;22;20344;-88
2024/03/16 12:28:35;;;;;;;0.20;0.20;;;;;;;;;;6252445;22;20042;-87
2024/03/16 12:31:02;;;;;;;0.55;0.32;;;;;;;;;;6252750;22;20448;-87
2024/03/16 12:33:28;;;;;;;0.85;0.45;;;;;;;;;;6252354;22;20020;-87
2024/03/16 12:35:55;;;;;;;1.10;0.25;;;;;;;;;;6252314;22;20016;-87
2024/03/16 12:38:21;;;;;;;0.45;0.30;;;;;;;;;;6277798;22;20024;-87
2024/03/16 12:40:48;;;;;;;0.30;0.22;;;;;;;;;;6252458;22;20031;-88
2024/03/16 12:43:14;;;;;;;0.20;0.20;;;;;;;;;;6252584;22;20016;-88
2024/03/16 12:45:40;;;;;;;0.20;0.20;;;;;;;;;;6252869;22;20023;-90
2024/03/16 12:48:07;;;;;;;0.25;0.20;;;;;;;;;;6278681;22;20027;-88
2024/03/16 12:50:33;;;;;;;1.77;0.28;;;;;;;;;;6278032;22;20019;-88
2024/03/16 12:53:00;;;;;;;0.20;0.20;;;;;;;;;;6278101;22;20023;-88
2024/03/16 12:55:26;;;;;;;1.65;0.28;;;;;;;;;;6276758;22;20023;-88
2024/03/16 12:57:52;;;;;;;0.63;0.30;;;;;;;;;;6252905;22;20020;-87
2024/03/16 13:00:21;;;;;;;0.40;0.20;;;;;;;;;;6278200;22;20020;-88
2024/03/16 13:02:50;;;;;;;1.75;0.22;;;;;;;;;;6252150;22;20020;-87
2024/03/16 13:05:16;;;;;;;0.40;0.20;;;;;;;;;;6278539;22;20031;-91
2024/03/16 13:07:42;;;;;;;1.55;0.32;;;;;;;;;;6251426;22;20026;-90
2024/03/16 13:10:09;;;;;;;0.22;0.20;;;;;;;;;;6274085;22;20069;-85
2024/03/16 13:12:35;;;;;;;0.52;0.30;;;;;;;;;;6250397;22;20494;-86
2024/03/16 13:15:01;;;;;;;1.55;0.20;;;;;;;;;;6250484;22;20023;-86
2024/03/16 13:17:28;;;;;;;16.60;10.02;;;;;;;;;;6250662;22;20015;-85
2024/03/16 13:19:54;;;;;;;13.38;12.05;;;;;;;;;;6274045;22;20027;-86
2024/03/16 13:22:22;;;;;;;0.60;0.60;;;;;;;;;;6250053;22;20023;-87
2024/03/16 13:24:48;;;;;;;0.63;0.63;;;;;;;;;;6275797;22;20376;-86
2024/03/16 13:27:15;;;;;;;0.68;0.40;;;;;;;;;;6250799;22;20020;-86
2024/03/16 13:29:41;;;;;;;0.50;0.50;;;;;;;;;;6276169;22;20020;-86
2024/03/16 13:32:07;;;;;;;0.50;0.40;;;;;;;;;;6258220;22;20023;-89
2024/03/16 13:34:34;;;;;;;0.80;0.68;;;;;;;;;;6249663;22;20020;-86
2024/03/16 13:37:00;;;;;;;0.50;0.50;;;;;;;;;;6275877;22;20026;-86
2024/03/16 13:39:30;;;;;;;0.70;0.38;;;;;;;;;;6248359;22;20082;-85
2024/03/16 13:42:01;;;;;;;0.50;0.43;;;;;;;;;;6250491;22;20020;-84
2024/03/16 13:44:28;;;;;;;0.70;0.60;;;;;;;;;;6274075;22;20015;-85
2024/03/16 13:46:56;;;;;;;0.70;0.70;;;;;;;;;;6274101;22;20019;-85
2024/03/16 13:49:22;;;;;;;0.50;0.50;;;;;;;;;;6274745;22;20043;-86
2024/03/16 13:51:48;;;;;;;0.50;0.50;;;;;;;;;;6276092;22;20390;-87
2024/03/16 13:54:14;;;;;;;1.35;0.70;;;;;;;;;;6275953;22;20452;-87
2024/03/16 13:56:41;;;;;;;0.80;0.80;;;;;;;;;;6276235;22;20026;-87
2024/03/16 13:59:07;;;;;;;0.52;0.52;;;;;;;;;;6276643;22;20023;-87
2024/03/16 14:01:34;;;;;;;1.05;0.70;;;;;;;;;;6250806;22;20027;-87
2024/03/16 14:04:01;;;;;;;3.00;0.95;;;;;;;;;;6276105;22;20069;-87
2024/03/16 14:06:28;;;;;;;1.20;1.00;;;;;;;;;;6251143;22;20026;-88
2024/03/16 14:09:06;;;;;;;0.98;0.98;;;;;;;;;;6276458;22;20356;-87
2024/03/16 14:11:36;;;;;;;1.20;1.20;;;;;;;;;;6251076;22;20054;-87
2024/03/16 14:14:02;;;;;;;1.13;1.13;;;;;;;;;;6250478;22;20016;-88
2024/03/16 14:16:28;;;;;;;1.58;1.10;;;;;;;;;;6251044;22;20024;-88
2024/03/16 14:18:55;;;;;;;1.50;1.40;;;;;;;;;;6251086;22;20020;-88
2024/03/16 14:21:21;;;;;;;1.85;1.35;;;;;;;;;;6251108;22;20019;-88
2024/03/16 14:23:48;;;;;;;1.55;1.40;;;;;;;;;;6251237;22;20343;-88
2024/03/16 14:26:14;;;;;;;1.60;1.55;;;;;;;;;;6251604;22;20024;-88
2024/03/16 14:28:40;;;;;;;1.38;1.27;;;;;;;;;;6251213;22;20474;-88
2024/03/16 14:31:08;;;;;;;1.63;1.52;;;;;;;;;;6277281;22;20027;-89
2024/03/16 14:33:38;;;;;;;1.50;1.23;;;;;;;;;;6251688;22;20020;-88
2024/03/16 14:36:05;;;;;;;1.70;1.40;;;;;;;;;;6251591;22;20031;-88
2024/03/16 14:38:32;;;;;;;2.88;1.30;;;;;;;;;;6251439;22;20046;-88
2024/03/16 14:40:59;;;;;;;1.75;1.65;;;;;;;;;;6251893;22;20026;-87
2024/03/16 14:43:25;;;;;;;1.20;1.10;;;;;;;;;;6251521;22;20375;-88
2024/03/16 14:45:52;;;;;;;1.77;1.00;;;;;;;;;;6255442;22;20030;-88
2024/03/16 14:48:18;;;;;;;1.13;1.00;;;;;;;;;;6280438;22;20045;-89
2024/03/16 14:50:44;;;;;;;0.95;0.95;;;;;;;;;;6250725;22;20383;-88
2024/03/16 14:53:11;;;;;;;1.63;0.90;;;;;;;;;;6250768;22;20448;-88
2024/03/16 14:55:37;;;;;;;1.60;1.50;;;;;;;;;;6276017;22;20456;-89
2024/03/16 14:58:05;;;;;;;1.75;1.05;;;;;;;;;;6250678;22;20484;-88
2024/03/16 15:00:32;;;;;;;1.17;0.82;;;;;;;;;;6276246;22;20028;-88
2024/03/16 15:03:00;;;;;;;0.90;0.90;;;;;;;;;;6276115;22;20016;-89